createdAt,value
2018-12-20T00:01:18.499Z,73.63
2018-12-20T00:03:48.004Z,74.77
2018-12-20T00:06:17.419Z,73.30
2018-12-20T00:08:46.801Z,75.70
2018-12-20T00:11:16.197Z,71.40
2018-12-20T00:13:45.608Z,71.23
2018-12-20T00:16:14.933Z,69.03
2018-12-20T00:18:44.358Z,69.27
2018-12-20T00:21:13.759Z,67.47
2018-12-20T00:23:43.106Z,67.47
2018-12-20T00:26:12.679Z,66.50
2018-12-20T00:28:42.076Z,66.07
2018-12-20T00:31:13.713Z,64.63
2018-12-20T00:33:42.962Z,65.83
2018-12-20T00:36:12.309Z,63.57
2018-12-20T00:38:41.661Z,62.53
2018-12-20T00:41:11.067Z,70.90
2018-12-20T00:43:40.499Z,74.43
2018-12-20T00:46:09.974Z,74.30
2018-12-20T00:48:39.616Z,77.63
2018-12-20T00:51:08.978Z,77.53
2018-12-20T00:53:38.443Z,77.93
2018-12-20T00:56:07.891Z,78.07
2018-12-20T00:58:37.262Z,81.40
2018-12-20T01:01:06.665Z,79.70
2018-12-20T01:03:36.040Z,79.30
2018-12-20T01:06:05.515Z,79.63
2018-12-20T01:08:34.947Z,80.53
2018-12-20T01:11:04.314Z,79.87
2018-12-20T01:13:33.950Z,78.97
2018-12-20T01:16:03.586Z,79.03
2018-12-20T01:18:33.005Z,76.53
2018-12-20T01:21:03.481Z,76.67
2018-12-20T01:23:32.971Z,77.83
2018-12-20T01:26:02.392Z,76.50
2018-12-20T01:28:31.968Z,74.23
2018-12-20T01:31:01.488Z,70.63
2018-12-20T01:33:30.981Z,73.10
2018-12-20T01:36:00.454Z,73.50
2018-12-20T01:38:29.893Z,72.97
2018-12-20T01:40:59.778Z,71.87
2018-12-20T01:43:29.834Z,68.07
2018-12-20T01:45:59.346Z,70.47
2018-12-20T01:48:29.022Z,70.30
2018-12-20T01:50:58.699Z,67.87
2018-12-20T01:53:28.298Z,65.37
2018-12-20T01:55:57.664Z,69.00
2018-12-20T01:58:27.120Z,65.00
2018-12-20T02:00:56.618Z,65.67
2018-12-20T02:03:26.133Z,62.67
2018-12-20T02:05:55.498Z,63.03
2018-12-20T02:08:24.887Z,62.90
2018-12-20T02:10:54.215Z,61.80
2018-12-20T02:13:23.639Z,60.80
2018-12-20T02:15:53.143Z,62.07
2018-12-20T02:18:22.526Z,61.10
2018-12-20T02:20:51.863Z,57.87
2018-12-20T02:23:21.232Z,57.23
2018-12-20T02:25:50.713Z,59.33
2018-12-20T02:28:20.181Z,57.33
2018-12-20T02:30:49.554Z,55.97
2018-12-20T02:33:19.047Z,55.53
2018-12-20T02:35:49.478Z,54.80
2018-12-20T02:38:19.123Z,56.73
2018-12-20T02:40:48.668Z,55.40
2018-12-20T02:43:18.139Z,56.37
2018-12-20T02:45:47.476Z,53.90
2018-12-20T02:48:16.988Z,51.07
2018-12-20T02:50:46.640Z,53.07
2018-12-20T02:53:16.183Z,52.13
2018-12-20T02:55:45.665Z,49.57
2018-12-20T02:58:14.987Z,50.23
2018-12-20T03:00:44.592Z,49.50
2018-12-20T03:03:14.262Z,50.30
2018-12-20T03:05:43.824Z,49.83
2018-12-20T03:08:13.459Z,49.00
2018-12-20T03:10:43.078Z,47.80
2018-12-20T03:13:12.695Z,47.60
2018-12-20T03:15:42.127Z,44.40
2018-12-20T03:18:11.679Z,48.10
2018-12-20T03:20:41.133Z,46.30
2018-12-20T03:23:10.481Z,45.37
2018-12-20T03:25:39.964Z,44.23
2018-12-20T03:28:09.632Z,45.40
2018-12-20T03:30:39.105Z,44.87
2018-12-20T03:33:10.484Z,44.40
2018-12-20T03:35:40.078Z,43.70
2018-12-20T03:38:09.636Z,43.43
2018-12-20T03:40:39.182Z,42.67
2018-12-20T03:43:08.798Z,42.37
2018-12-20T03:45:38.340Z,41.80
2018-12-20T03:48:07.867Z,41.17
2018-12-20T03:50:37.289Z,40.90
2018-12-20T03:53:06.673Z,40.00
2018-12-20T03:55:36.129Z,40.67
2018-12-20T03:58:05.474Z,38.80
2018-12-20T04:00:34.816Z,39.70
2018-12-20T04:03:04.147Z,39.17
2018-12-20T04:05:33.866Z,39.60
2018-12-20T04:08:03.330Z,37.10
2018-12-20T04:10:32.720Z,37.83
2018-12-20T04:13:03.122Z,37.20
2018-12-20T04:15:37.721Z,36.93
2018-12-20T04:18:03.991Z,37.63
2018-12-20T04:20:33.399Z,37.03
2018-12-20T04:23:02.928Z,35.87
2018-12-20T04:25:32.265Z,35.20
2018-12-20T04:28:01.624Z,34.90
2018-12-20T04:30:30.963Z,35.20
2018-12-20T04:33:00.401Z,35.43
2018-12-20T04:35:29.824Z,34.37
2018-12-20T04:37:59.180Z,33.93
2018-12-20T04:40:28.720Z,34.93
2018-12-20T04:42:58.289Z,33.23
2018-12-20T04:45:27.676Z,33.77
2018-12-20T04:47:57.109Z,32.60
2018-12-20T04:50:26.699Z,32.93
2018-12-20T04:52:56.328Z,32.63
2018-12-20T04:55:25.870Z,31.57
2018-12-20T04:57:56.632Z,31.73
2018-12-20T05:00:26.046Z,30.83
2018-12-20T05:02:55.410Z,30.87
2018-12-20T05:05:24.727Z,32.20
2018-12-20T05:07:54.216Z,30.23
2018-12-20T05:10:23.720Z,30.33
2018-12-20T05:12:53.122Z,31.00
2018-12-20T05:15:22.443Z,29.37
2018-12-20T05:17:51.806Z,30.43
2018-12-20T05:20:21.169Z,28.83
2018-12-20T05:22:50.630Z,30.00
2018-12-20T05:25:20.192Z,29.43
2018-12-20T05:30:02.940Z,29.37
2018-12-20T05:32:32.629Z,28.57
2018-12-20T05:35:02.212Z,27.47
2018-12-20T05:37:31.738Z,28.43
2018-12-20T05:40:01.370Z,27.87
2018-12-20T05:42:30.934Z,28.63
2018-12-20T05:45:00.414Z,27.57
2018-12-20T05:47:29.865Z,27.93
2018-12-20T05:49:59.329Z,27.73
2018-12-20T05:52:28.760Z,25.70
2018-12-20T05:54:58.124Z,25.40
2018-12-20T05:57:27.443Z,27.07
2018-12-20T05:59:57.110Z,30.23
2018-12-20T06:02:26.444Z,28.23
2018-12-20T06:04:55.769Z,31.60
2018-12-20T06:07:25.281Z,32.57
2018-12-20T06:09:54.699Z,34.37
2018-12-20T06:12:24.066Z,35.50
2018-12-20T06:14:53.488Z,36.60
2018-12-20T06:17:23.681Z,38.03
2018-12-20T06:19:53.291Z,38.87
2018-12-20T06:22:22.720Z,54.30
2018-12-20T06:24:52.271Z,52.93
2018-12-20T06:27:21.596Z,51.27
2018-12-20T06:29:50.955Z,74.20
2018-12-20T06:32:20.300Z,65.17
2018-12-20T06:34:49.621Z,64.97
2018-12-20T06:37:19.012Z,56.37
2018-12-20T06:39:48.331Z,54.27
2018-12-20T06:42:17.655Z,55.40
2018-12-20T06:44:47.008Z,55.37
2018-12-20T06:47:17.366Z,55.50
2018-12-20T06:49:46.856Z,59.20
2018-12-20T06:52:16.184Z,57.43
2018-12-20T06:54:45.702Z,54.50
2018-12-20T06:57:15.094Z,51.57
2018-12-20T06:59:44.589Z,53.47
2018-12-20T07:02:13.941Z,52.50
2018-12-20T07:04:44.360Z,54.00
2018-12-20T07:07:13.760Z,50.80
2018-12-20T07:09:43.212Z,55.90
2018-12-20T07:12:12.689Z,52.47
2018-12-20T07:14:42.076Z,51.13
2018-12-20T07:17:11.743Z,50.63
2018-12-20T07:19:41.436Z,51.37
2018-12-20T07:22:10.749Z,49.57
2018-12-20T07:24:40.129Z,50.97
2018-12-20T07:27:09.452Z,50.23
2018-12-20T07:29:38.848Z,50.03
2018-12-20T07:32:08.859Z,51.80
2018-12-20T07:34:38.232Z,57.40
2018-12-20T07:37:08.949Z,64.10
2018-12-20T07:39:39.381Z,100.90
2018-12-20T07:42:09.133Z,97.33
2018-12-20T07:44:38.504Z,73.83
2018-12-20T07:47:07.858Z,69.30
2018-12-20T07:49:37.225Z,64.73
2018-12-20T07:52:06.636Z,61.50
2018-12-20T07:54:35.974Z,63.77
2018-12-20T07:57:05.314Z,63.10
2018-12-20T07:59:34.656Z,60.90
2018-12-20T08:02:04.155Z,59.77
2018-12-20T08:04:33.544Z,58.17
2018-12-20T08:07:02.896Z,57.60
2018-12-20T08:09:32.223Z,57.80
2018-12-20T08:12:01.611Z,58.30
2018-12-20T08:14:30.951Z,57.67
2018-12-20T08:17:00.318Z,56.10
2018-12-20T08:19:36.197Z,56.10
2018-12-20T08:22:02.264Z,57.13
2018-12-20T08:24:31.984Z,55.90
2018-12-20T08:27:01.351Z,55.60
2018-12-20T08:29:30.659Z,55.40
2018-12-20T08:32:00.020Z,56.47
2018-12-20T08:34:29.336Z,54.03
2018-12-20T08:36:58.683Z,54.73
2018-12-20T08:39:28.021Z,53.97
2018-12-20T08:41:57.376Z,54.97
2018-12-20T08:44:26.706Z,52.97
2018-12-20T08:46:56.064Z,53.27
2018-12-20T08:49:25.379Z,52.53
2018-12-20T08:51:55.779Z,50.53
2018-12-20T08:54:25.111Z,51.83
2018-12-20T08:56:54.427Z,51.57
2018-12-20T08:59:23.752Z,51.43
2018-12-20T09:01:53.068Z,50.87
2018-12-20T09:04:22.395Z,50.67
2018-12-20T09:06:51.711Z,49.67
2018-12-20T09:09:21.044Z,50.20
2018-12-20T09:11:50.387Z,49.40
2018-12-20T09:14:19.740Z,49.57
2018-12-20T09:16:49.073Z,47.37
2018-12-20T09:19:18.407Z,47.80
2018-12-20T09:21:47.733Z,46.40
2018-12-20T09:24:17.068Z,47.80
2018-12-20T09:26:46.388Z,46.70
2018-12-20T09:29:15.744Z,47.10
2018-12-20T09:31:45.308Z,46.63
2018-12-20T09:34:14.889Z,46.17
2018-12-20T09:36:44.219Z,47.90
2018-12-20T09:39:13.848Z,45.60
2018-12-20T09:41:43.187Z,45.53
2018-12-20T09:44:12.564Z,44.90
2018-12-20T09:46:41.895Z,44.03
2018-12-20T09:49:11.319Z,45.47
2018-12-20T09:51:40.652Z,43.73
2018-12-20T09:54:10.008Z,44.17
2018-12-20T09:56:39.347Z,44.10
2018-12-20T09:59:08.704Z,44.87
2018-12-20T10:01:38.040Z,41.97
2018-12-20T10:04:07.409Z,44.03
2018-12-20T10:06:36.768Z,43.60
2018-12-20T10:09:07.859Z,41.80
2018-12-20T10:11:37.225Z,43.83
2018-12-20T10:14:06.596Z,42.30
2018-12-20T10:16:35.952Z,41.63
2018-12-20T10:19:05.285Z,41.77
2018-12-20T10:21:34.649Z,39.77
2018-12-20T10:24:03.991Z,41.20
2018-12-20T10:26:33.354Z,39.83
2018-12-20T10:29:02.684Z,38.60
2018-12-20T10:31:32.160Z,40.07
2018-12-20T10:34:01.490Z,38.97
2018-12-20T10:36:30.845Z,37.47
2018-12-20T10:39:00.215Z,39.33
2018-12-20T10:41:29.574Z,38.53
2018-12-20T10:43:59.920Z,38.33
2018-12-20T10:46:29.283Z,37.83
2018-12-20T10:48:58.655Z,39.10
2018-12-20T10:51:28.036Z,38.07
2018-12-20T10:53:57.360Z,37.23
2018-12-20T10:56:26.700Z,36.20
2018-12-20T10:58:56.024Z,37.27
2018-12-20T11:01:30.540Z,36.37
2018-12-20T11:04:05.036Z,36.40
2018-12-20T11:06:39.628Z,35.93
2018-12-20T11:09:14.229Z,34.60
2018-12-20T11:11:48.776Z,35.63
2018-12-20T11:14:18.108Z,35.93
2018-12-20T11:16:47.436Z,34.80
2018-12-20T11:19:16.822Z,34.97
2018-12-20T11:21:46.144Z,34.20
2018-12-20T11:24:15.718Z,34.77
2018-12-20T11:26:45.124Z,34.13
2018-12-20T11:29:14.500Z,33.80
2018-12-20T11:31:43.815Z,33.63
2018-12-20T11:34:13.171Z,33.00
2018-12-20T11:36:42.489Z,33.93
2018-12-20T11:39:11.844Z,34.27
2018-12-20T11:41:41.160Z,32.87
2018-12-20T11:44:10.507Z,33.37
2018-12-20T11:46:39.848Z,33.13
2018-12-20T11:49:09.219Z,32.77
2018-12-20T11:51:38.563Z,30.97
2018-12-20T11:54:07.924Z,32.50
2018-12-20T11:56:37.253Z,31.90
2018-12-20T11:59:06.620Z,31.70
2018-12-20T12:01:36.908Z,30.83
2018-12-20T12:04:06.268Z,31.60
2018-12-20T12:06:35.592Z,30.60
2018-12-20T12:09:09.808Z,30.40
2018-12-20T12:11:39.429Z,30.00
2018-12-20T12:14:09.055Z,29.30
2018-12-20T12:16:38.395Z,30.47
2018-12-20T12:19:08.947Z,29.00
2018-12-20T12:21:38.271Z,29.97
2018-12-20T12:24:08.989Z,29.37
2018-12-20T12:26:38.300Z,29.27
2018-12-20T12:29:09.300Z,28.23
2018-12-20T12:31:38.764Z,29.50
2018-12-20T12:34:09.472Z,27.23
2018-12-20T12:36:38.944Z,28.53
2018-12-20T12:39:09.305Z,28.23
2018-12-20T12:41:38.669Z,28.97
2018-12-20T12:44:09.491Z,28.07
2018-12-20T12:46:40.392Z,27.57
2018-12-20T12:49:09.764Z,28.13
2018-12-20T12:51:39.164Z,27.70
2018-12-20T12:54:08.944Z,26.50
2018-12-20T12:56:38.316Z,27.23
2018-12-20T12:59:08.845Z,26.53
2018-12-20T13:01:38.205Z,27.53
2018-12-20T13:04:09.072Z,27.17
2018-12-20T13:06:38.427Z,26.03
2018-12-20T13:09:10.832Z,26.77
2018-12-20T13:11:40.203Z,26.27
2018-12-20T13:14:09.562Z,25.50
2018-12-20T13:16:40.847Z,25.53
2018-12-20T13:19:10.723Z,25.27
2018-12-20T13:21:40.084Z,24.60
2018-12-20T13:24:09.470Z,24.20
2018-12-20T13:26:38.828Z,25.00
2018-12-20T13:29:08.192Z,24.97
2018-12-20T13:31:37.544Z,25.53
2018-12-20T13:34:06.932Z,24.97
2018-12-20T13:36:36.283Z,24.87
2018-12-20T13:39:07.635Z,24.87
2018-12-20T13:41:36.988Z,24.83
2018-12-20T13:44:06.379Z,25.00
2018-12-20T13:46:35.715Z,23.97
2018-12-20T13:49:06.049Z,23.70
2018-12-20T13:51:35.405Z,23.57
2018-12-20T13:54:05.378Z,24.13
2018-12-20T13:56:35.407Z,24.40
2018-12-20T13:59:04.763Z,22.93
2018-12-20T14:01:34.131Z,23.87
2018-12-20T14:04:03.489Z,23.63
2018-12-20T14:06:32.891Z,22.63
2018-12-20T14:09:02.340Z,22.50
2018-12-20T14:11:32.807Z,23.33
2018-12-20T14:14:02.171Z,21.40
2018-12-20T14:16:31.531Z,23.10
2018-12-20T14:19:00.883Z,22.57
2018-12-20T14:21:30.228Z,21.83
2018-12-20T14:23:59.629Z,22.27
2018-12-20T14:26:28.991Z,22.97
2018-12-20T14:28:58.422Z,21.50
2018-12-20T14:31:27.780Z,22.30
2018-12-20T14:33:58.141Z,21.50
2018-12-20T14:36:27.516Z,20.43
2018-12-20T14:38:56.860Z,22.43
2018-12-20T14:41:26.224Z,21.47
2018-12-20T14:43:55.956Z,22.47
2018-12-20T14:46:25.324Z,20.97
2018-12-20T14:48:54.678Z,21.13
2018-12-20T14:51:24.089Z,21.27
2018-12-20T14:53:53.468Z,20.57
2018-12-20T14:56:22.854Z,21.27
2018-12-20T14:58:52.213Z,20.83
2018-12-20T15:01:21.593Z,19.67
2018-12-20T15:03:50.952Z,20.47
2018-12-20T15:06:20.300Z,19.83
2018-12-20T15:08:49.715Z,20.10
2018-12-20T15:11:19.063Z,19.20
2018-12-20T15:13:48.464Z,20.50
2018-12-20T15:16:17.837Z,18.97
2018-12-20T15:18:47.875Z,20.80
2018-12-20T15:21:17.651Z,20.50
2018-12-20T15:23:47.043Z,21.43
2018-12-20T15:26:16.582Z,24.77
2018-12-20T15:28:46.766Z,32.60
2018-12-20T15:31:16.251Z,32.27
2018-12-20T15:33:45.641Z,35.37
2018-12-20T15:36:15.293Z,37.30
2018-12-20T15:38:44.776Z,37.67
2018-12-20T15:41:14.259Z,33.90
2018-12-20T15:43:43.782Z,32.33
2018-12-20T15:46:13.179Z,34.27
2018-12-20T15:48:42.773Z,31.60
2018-12-20T15:51:13.616Z,38.03
2018-12-20T15:53:44.463Z,37.07
2018-12-20T15:56:15.559Z,42.13
2018-12-20T15:58:44.941Z,39.03
2018-12-20T16:01:14.327Z,42.00
2018-12-20T16:03:43.774Z,36.40
2018-12-20T16:06:13.463Z,39.67
2018-12-20T16:08:42.908Z,40.47
2018-12-20T16:11:12.367Z,37.30
2018-12-20T16:13:41.740Z,38.13
2018-12-20T16:16:11.120Z,37.23
2018-12-20T16:18:40.492Z,37.30
2018-12-20T16:21:09.873Z,39.13
2018-12-20T16:23:39.608Z,37.33
2018-12-20T16:26:08.975Z,36.80
2018-12-20T16:28:38.412Z,37.67
2018-12-20T16:31:07.912Z,38.33
2018-12-20T16:33:37.303Z,37.97
2018-12-20T16:36:06.671Z,36.07
2018-12-20T16:38:36.021Z,34.57
2018-12-20T16:41:05.399Z,36.03
2018-12-20T16:43:34.778Z,33.97
2018-12-20T16:46:04.150Z,35.80
2018-12-20T16:48:33.515Z,35.57
2018-12-20T16:51:02.872Z,36.07
2018-12-20T16:53:32.280Z,35.13
2018-12-20T16:56:01.695Z,33.67
2018-12-20T16:58:31.067Z,34.03
2018-12-20T17:01:00.416Z,33.93
2018-12-20T17:03:29.887Z,34.27
2018-12-20T17:05:59.252Z,33.77
2018-12-20T17:08:28.625Z,33.70
2018-12-20T17:10:58.084Z,32.77
2018-12-20T17:13:27.517Z,32.13
2018-12-20T17:15:56.897Z,31.40
2018-12-20T17:18:26.360Z,30.57
2018-12-20T17:20:55.743Z,30.43
2018-12-20T17:23:25.132Z,31.47
2018-12-20T17:25:54.499Z,31.97
2018-12-20T17:28:23.922Z,31.00
2018-12-20T17:30:53.943Z,32.70
2018-12-20T17:33:24.363Z,31.00
2018-12-20T17:35:55.621Z,30.67
2018-12-20T17:38:27.576Z,30.77
2018-12-20T17:41:00.544Z,29.27
2018-12-20T17:43:31.802Z,29.13
2018-12-20T17:46:03.376Z,29.57
2018-12-20T17:48:34.753Z,28.30
2018-12-20T17:51:05.598Z,28.53
2018-12-20T17:53:36.299Z,28.00
2018-12-20T17:56:06.839Z,28.17
2018-12-20T17:58:37.736Z,30.23
2018-12-20T18:01:07.804Z,29.50
2018-12-20T18:03:38.988Z,30.80
2018-12-20T18:06:09.689Z,30.83
2018-12-20T18:08:40.364Z,30.93
2018-12-20T18:11:11.599Z,31.07
2018-12-20T18:13:43.428Z,30.77
2018-12-20T18:16:14.828Z,29.77
2018-12-20T18:18:45.630Z,29.60
2018-12-20T18:21:15.907Z,30.33
2018-12-20T18:23:46.524Z,29.50
2018-12-20T18:26:16.971Z,31.80
2018-12-20T18:28:47.444Z,32.90
2018-12-20T18:31:17.996Z,30.63
2018-12-20T18:33:48.567Z,31.47
2018-12-20T18:36:19.282Z,31.97
2018-12-20T18:38:50.309Z,30.30
2018-12-20T18:41:20.886Z,31.23
2018-12-20T18:43:51.246Z,32.63
2018-12-20T18:46:21.640Z,31.33
2018-12-20T18:48:52.704Z,32.40
2018-12-20T18:51:24.003Z,32.23
2018-12-20T18:53:55.532Z,32.83
2018-12-20T18:56:26.388Z,34.60
2018-12-20T18:58:56.929Z,32.37
2018-12-20T19:01:29.655Z,32.77
2018-12-20T19:04:00.152Z,31.07
2018-12-20T19:06:30.785Z,32.37
2018-12-20T19:09:01.548Z,30.83
2018-12-20T19:11:33.574Z,33.57
2018-12-20T19:14:04.055Z,32.07
2018-12-20T19:16:34.668Z,32.47
2018-12-20T19:19:07.813Z,32.47
2018-12-20T19:21:38.552Z,32.90
2018-12-20T19:24:11.515Z,33.30
2018-12-20T19:26:44.657Z,32.37
2018-12-20T19:29:15.373Z,32.40
2018-12-20T19:31:46.793Z,32.73
2018-12-20T19:34:18.436Z,33.50
2018-12-20T19:36:49.192Z,33.90
2018-12-20T19:39:20.220Z,34.10
2018-12-20T19:41:51.116Z,35.67
2018-12-20T19:44:23.630Z,37.60
2018-12-20T19:46:55.380Z,40.57
2018-12-20T19:49:26.169Z,40.67
2018-12-20T19:51:57.496Z,42.60
2018-12-20T19:54:28.449Z,41.97
2018-12-20T19:56:59.223Z,38.23
2018-12-20T19:59:38.495Z,38.70
2018-12-20T20:02:04.904Z,40.50
2018-12-20T20:04:36.032Z,40.70
2018-12-20T20:07:06.946Z,41.30
2018-12-20T20:09:38.575Z,40.10
2018-12-20T20:12:09.141Z,43.07
2018-12-20T20:14:39.825Z,42.33
2018-12-20T20:17:11.132Z,40.47
2018-12-20T20:19:41.857Z,40.93
2018-12-20T20:22:14.733Z,38.90
2018-12-20T20:24:45.489Z,38.40
2018-12-20T20:27:16.189Z,38.03
2018-12-20T20:29:47.049Z,39.90
2018-12-20T20:32:18.223Z,39.07
2018-12-20T20:34:49.728Z,38.77
2018-12-20T20:37:21.441Z,37.93
2018-12-20T20:39:53.657Z,39.80
2018-12-20T20:42:24.148Z,37.57
2018-12-20T20:44:54.892Z,36.00
2018-12-20T20:47:25.358Z,36.37
2018-12-20T20:49:56.081Z,36.97
2018-12-20T20:52:28.794Z,36.23
2018-12-20T20:55:02.213Z,40.63
2018-12-20T20:57:33.545Z,44.63
2018-12-20T21:00:04.907Z,47.93
2018-12-20T21:02:35.244Z,50.20
2018-12-20T21:05:07.652Z,53.73
2018-12-20T21:07:39.879Z,63.63
2018-12-20T21:10:14.463Z,108.10
2018-12-20T21:12:45.844Z,115.20
2018-12-20T21:15:17.417Z,105.43
2018-12-20T21:17:48.382Z,102.87
2018-12-20T21:20:19.314Z,111.03
2018-12-20T21:22:51.232Z,106.10
2018-12-20T21:25:22.007Z,102.00
2018-12-20T21:27:52.437Z,111.23
2018-12-20T21:30:24.341Z,104.53
2018-12-20T21:32:55.040Z,103.67
2018-12-20T21:35:25.737Z,106.30
2018-12-20T21:37:56.200Z,104.77
2018-12-20T21:40:26.974Z,104.17
2018-12-20T21:42:57.614Z,96.40
2018-12-20T21:45:28.049Z,99.17
2018-12-20T21:47:58.283Z,99.27
2018-12-20T21:50:28.692Z,99.00
2018-12-20T21:52:59.034Z,94.03
2018-12-20T21:55:30.308Z,92.13
2018-12-20T21:58:01.234Z,89.50
2018-12-20T22:00:34.944Z,88.87
2018-12-20T22:03:10.601Z,86.70
2018-12-20T22:05:41.943Z,87.70
2018-12-20T22:08:12.827Z,85.87
2018-12-20T22:10:43.172Z,83.37
2018-12-20T22:13:14.123Z,88.03
2018-12-20T22:15:45.335Z,88.57
2018-12-20T22:18:16.107Z,86.60
2018-12-20T22:20:47.774Z,84.40
2018-12-20T22:23:18.903Z,81.53
2018-12-20T22:25:49.607Z,82.87
2018-12-20T22:28:20.318Z,84.63
2018-12-20T22:30:51.312Z,83.60
2018-12-20T22:33:22.180Z,82.90
2018-12-20T22:35:53.444Z,80.70
2018-12-20T22:38:24.216Z,87.77
2018-12-20T22:40:54.735Z,96.17
2018-12-20T22:43:25.699Z,95.10
2018-12-20T22:45:56.327Z,86.73
2018-12-20T22:48:27.272Z,92.50
2018-12-20T22:50:58.011Z,89.43
2018-12-20T22:53:28.152Z,90.00
2018-12-20T22:55:58.557Z,90.33
2018-12-20T22:58:28.996Z,93.10
2018-12-20T23:01:00.904Z,93.67
2018-12-20T23:03:34.136Z,93.37
2018-12-20T23:06:04.906Z,94.37
2018-12-20T23:08:35.748Z,97.40
2018-12-20T23:11:07.008Z,91.87
2018-12-20T23:13:38.134Z,94.10
2018-12-20T23:16:09.048Z,95.23
2018-12-20T23:18:39.684Z,93.87
2018-12-20T23:21:11.001Z,95.37
2018-12-20T23:27:35.624Z,95.30
2018-12-20T23:54:07.091Z,91.10
2018-12-20T23:57:12.661Z,88.57
